sensor_id;sensor_type;location;lat;lon;timestamp;temperature;humidity
356;DHT22;62514;48.112;11.566;2023-12-28T00:01:26;4.40;2.10
356;DHT22;62514;48.112;11.566;2023-12-28T00:03:52;4.50;1.10
356;DHT22;62514;48.112;11.566;2023-12-28T00:06:18;4.60;1.00
356;DHT22;62514;48.112;11.566;2023-12-28T00:08:43;4.70;1.10
356;DHT22;62514;48.112;11.566;2023-12-28T00:11:09;4.70;2.10
356;DHT22;62514;48.112;11.566;2023-12-28T00:13:35;4.70;1.20
356;DHT22;62514;48.112;11.566;2023-12-28T00:16:01;4.70;1.00
356;DHT22;62514;48.112;11.566;2023-12-28T00:18:27;4.70;1.00
356;DHT22;62514;48.112;11.566;2023-12-28T00:20:53;4.70;1.00
356;DHT22;62514;48.112;11.566;2023-12-28T00:23:19;4.80;1.00
356;DHT22;62514;48.112;11.566;2023-12-28T00:25:46;4.80;1.00
356;DHT22;62514;48.112;11.566;2023-12-28T00:28:12;4.70;1.00
356;DHT22;62514;48.112;11.566;2023-12-28T00:30:38;4.80;1.00
356;DHT22;62514;48.112;11.566;2023-12-28T00:33:04;4.70;1.00
356;DHT22;62514;48.112;11.566;2023-12-28T00:35:30;4.70;1.00
356;DHT22;62514;48.112;11.566;2023-12-28T00:37:56;4.60;1.00
356;DHT22;62514;48.112;11.566;2023-12-28T00:40:21;4.50;1.00
356;DHT22;62514;48.112;11.566;2023-12-28T00:42:48;4.50;1.10
356;DHT22;62514;48.112;11.566;2023-12-28T00:45:14;4.40;1.00
356;DHT22;62514;48.112;11.566;2023-12-28T00:47:40;4.30;1.00
356;DHT22;62514;48.112;11.566;2023-12-28T00:50:09;4.20;1.00
356;DHT22;62514;48.112;11.566;2023-12-28T00:52:37;4.20;1.70
356;DHT22;62514;48.112;11.566;2023-12-28T00:55:04;4.20;2.30
356;DHT22;62514;48.112;11.566;2023-12-28T00:57:30;4.00;3.80
356;DHT22;62514;48.112;11.566;2023-12-28T00:59:55;3.70;6.60
356;DHT22;62514;48.112;11.566;2023-12-28T01:02:21;3.50;7.30
356;DHT22;62514;48.112;11.566;2023-12-28T01:04:47;3.40;7.20
356;DHT22;62514;48.112;11.566;2023-12-28T01:07:13;3.40;7.30
356;DHT22;62514;48.112;11.566;2023-12-28T01:09:41;3.40;7.40
356;DHT22;62514;48.112;11.566;2023-12-28T01:12:07;3.40;7.40
356;DHT22;62514;48.112;11.566;2023-12-28T01:14:33;3.40;7.60
356;DHT22;62514;48.112;11.566;2023-12-28T01:16:59;3.30;8.00
356;DHT22;62514;48.112;11.566;2023-12-28T01:19:25;3.20;8.80
356;DHT22;62514;48.112;11.566;2023-12-28T01:21:51;3.20;8.80
356;DHT22;62514;48.112;11.566;2023-12-28T01:24:17;3.10;9.10
356;DHT22;62514;48.112;11.566;2023-12-28T01:26:43;3.00;9.60
356;DHT22;62514;48.112;11.566;2023-12-28T01:29:15;3.00;9.80
356;DHT22;62514;48.112;11.566;2023-12-28T01:31:41;3.00;10.00
356;DHT22;62514;48.112;11.566;2023-12-28T01:34:08;2.90;10.00
356;DHT22;62514;48.112;11.566;2023-12-28T01:36:35;2.90;10.10
356;DHT22;62514;48.112;11.566;2023-12-28T01:39:01;2.70;10.80
356;DHT22;62514;48.112;11.566;2023-12-28T01:41:27;2.70;10.80
356;DHT22;62514;48.112;11.566;2023-12-28T01:43:52;2.70;11.10
356;DHT22;62514;48.112;11.566;2023-12-28T01:46:20;2.60;11.40
356;DHT22;62514;48.112;11.566;2023-12-28T01:48:54;2.60;11.60
356;DHT22;62514;48.112;11.566;2023-12-28T01:51:23;2.50;11.70
356;DHT22;62514;48.112;11.566;2023-12-28T01:53:49;2.50;11.40
356;DHT22;62514;48.112;11.566;2023-12-28T01:56:17;2.50;11.80
356;DHT22;62514;48.112;11.566;2023-12-28T01:58:44;2.40;11.80
356;DHT22;62514;48.112;11.566;2023-12-28T02:01:11;2.40;11.60
356;DHT22;62514;48.112;11.566;2023-12-28T02:03:38;2.50;11.50
356;DHT22;62514;48.112;11.566;2023-12-28T02:06:06;2.30;12.40
356;DHT22;62514;48.112;11.566;2023-12-28T02:08:32;2.30;12.30
356;DHT22;62514;48.112;11.566;2023-12-28T02:10:59;2.30;12.40
356;DHT22;62514;48.112;11.566;2023-12-28T02:13:25;2.20;12.70
356;DHT22;62514;48.112;11.566;2023-12-28T02:15:56;2.20;12.80
356;DHT22;62514;48.112;11.566;2023-12-28T02:18:29;2.20;12.70
356;DHT22;62514;48.112;11.566;2023-12-28T02:20:57;2.00;13.40
356;DHT22;62514;48.112;11.566;2023-12-28T02:23:23;2.10;13.70
356;DHT22;62514;48.112;11.566;2023-12-28T02:25:49;2.00;13.90
356;DHT22;62514;48.112;11.566;2023-12-28T02:28:15;2.10;14.00
356;DHT22;62514;48.112;11.566;2023-12-28T02:30:41;2.00;14.00
356;DHT22;62514;48.112;11.566;2023-12-28T02:33:24;2.00;14.30
356;DHT22;62514;48.112;11.566;2023-12-28T02:36:07;1.90;14.30
356;DHT22;62514;48.112;11.566;2023-12-28T02:38:37;1.80;15.60
356;DHT22;62514;48.112;11.566;2023-12-28T02:41:04;1.60;16.80
356;DHT22;62514;48.112;11.566;2023-12-28T02:43:31;1.60;17.40
356;DHT22;62514;48.112;11.566;2023-12-28T02:45:58;1.70;17.40
356;DHT22;62514;48.112;11.566;2023-12-28T02:48:24;1.70;17.60
356;DHT22;62514;48.112;11.566;2023-12-28T02:50:51;1.70;17.60
356;DHT22;62514;48.112;11.566;2023-12-28T02:53:17;1.60;18.00
356;DHT22;62514;48.112;11.566;2023-12-28T02:55:43;1.60;18.00
356;DHT22;62514;48.112;11.566;2023-12-28T02:58:09;1.50;17.50
356;DHT22;62514;48.112;11.566;2023-12-28T03:00:35;1.60;17.60
356;DHT22;62514;48.112;11.566;2023-12-28T03:03:01;1.60;17.40
356;DHT22;62514;48.112;11.566;2023-12-28T03:05:27;1.50;17.10
356;DHT22;62514;48.112;11.566;2023-12-28T03:07:53;1.60;17.30
356;DHT22;62514;48.112;11.566;2023-12-28T03:10:21;1.60;17.40
356;DHT22;62514;48.112;11.566;2023-12-28T03:12:47;1.60;17.90
356;DHT22;62514;48.112;11.566;2023-12-28T03:15:13;1.60;17.60
356;DHT22;62514;48.112;11.566;2023-12-28T03:17:39;1.60;17.40
356;DHT22;62514;48.112;11.566;2023-12-28T03:20:06;1.60;17.50
356;DHT22;62514;48.112;11.566;2023-12-28T03:22:32;1.60;16.90
356;DHT22;62514;48.112;11.566;2023-12-28T03:25:01;1.70;15.50
356;DHT22;62514;48.112;11.566;2023-12-28T03:27:27;1.80;14.50
356;DHT22;62514;48.112;11.566;2023-12-28T03:29:53;1.90;14.80
356;DHT22;62514;48.112;11.566;2023-12-28T03:32:19;2.00;13.10
356;DHT22;62514;48.112;11.566;2023-12-28T03:34:45;2.10;11.90
356;DHT22;62514;48.112;11.566;2023-12-28T03:37:11;2.30;10.30
356;DHT22;62514;48.112;11.566;2023-12-28T03:39:37;2.50;10.00
356;DHT22;62514;48.112;11.566;2023-12-28T03:42:03;2.60;9.30
356;DHT22;62514;48.112;11.566;2023-12-28T03:44:29;2.70;9.70
356;DHT22;62514;48.112;11.566;2023-12-28T03:46:55;2.80;8.70
356;DHT22;62514;48.112;11.566;2023-12-28T03:49:21;2.90;6.00
356;DHT22;62514;48.112;11.566;2023-12-28T03:51:49;3.10;5.60
356;DHT22;62514;48.112;11.566;2023-12-28T03:54:19;3.20;6.00
356;DHT22;62514;48.112;11.566;2023-12-28T03:56:46;3.20;5.90
356;DHT22;62514;48.112;11.566;2023-12-28T03:59:12;3.20;5.80
356;DHT22;62514;48.112;11.566;2023-12-28T04:01:39;3.30;4.20
356;DHT22;62514;48.112;11.566;2023-12-28T04:04:05;3.40;3.60
356;DHT22;62514;48.112;11.566;2023-12-28T04:06:31;3.60;3.10
356;DHT22;62514;48.112;11.566;2023-12-28T04:08:57;3.70;2.80
356;DHT22;62514;48.112;11.566;2023-12-28T04:11:23;3.80;2.40
356;DHT22;62514;48.112;11.566;2023-12-28T04:13:49;3.90;1.60
356;DHT22;62514;48.112;11.566;2023-12-28T04:16:16;4.00;1.10
356;DHT22;62514;48.112;11.566;2023-12-28T04:18:42;4.20;1.00
356;DHT22;62514;48.112;11.566;2023-12-28T04:21:12;4.20;1.00
356;DHT22;62514;48.112;11.566;2023-12-28T04:23:40;4.20;1.00
356;DHT22;62514;48.112;11.566;2023-12-28T04:26:07;4.30;1.00
356;DHT22;62514;48.112;11.566;2023-12-28T04:28:33;4.40;1.00
356;DHT22;62514;48.112;11.566;2023-12-28T04:31:04;4.40;1.00
356;DHT22;62514;48.112;11.566;2023-12-28T04:33:31;4.50;1.00
356;DHT22;62514;48.112;11.566;2023-12-28T04:35:57;4.60;1.00
356;DHT22;62514;48.112;11.566;2023-12-28T04:38:25;4.70;1.00
356;DHT22;62514;48.112;11.566;2023-12-28T04:40:51;4.70;1.00
356;DHT22;62514;48.112;11.566;2023-12-28T04:43:18;4.70;1.00
356;DHT22;62514;48.112;11.566;2023-12-28T04:45:44;4.80;1.00
356;DHT22;62514;48.112;11.566;2023-12-28T04:48:10;4.70;1.00
356;DHT22;62514;48.112;11.566;2023-12-28T04:50:36;4.60;1.00
356;DHT22;62514;48.112;11.566;2023-12-28T04:53:03;4.60;1.00
356;DHT22;62514;48.112;11.566;2023-12-28T04:55:29;4.60;1.00
356;DHT22;62514;48.112;11.566;2023-12-28T04:57:54;4.70;1.00
356;DHT22;62514;48.112;11.566;2023-12-28T05:00:20;4.70;1.00
356;DHT22;62514;48.112;11.566;2023-12-28T05:02:46;4.70;1.00
356;DHT22;62514;48.112;11.566;2023-12-28T05:05:12;4.60;1.00
356;DHT22;62514;48.112;11.566;2023-12-28T05:07:39;4.60;1.00
356;DHT22;62514;48.112;11.566;2023-12-28T05:10:05;4.50;1.00
356;DHT22;62514;48.112;11.566;2023-12-28T05:12:31;4.40;1.00
356;DHT22;62514;48.112;11.566;2023-12-28T05:14:57;4.40;1.00
356;DHT22;62514;48.112;11.566;2023-12-28T05:17:23;4.30;1.00
356;DHT22;62514;48.112;11.566;2023-12-28T05:19:49;4.30;1.00
356;DHT22;62514;48.112;11.566;2023-12-28T05:22:15;4.20;1.00
356;DHT22;62514;48.112;11.566;2023-12-28T05:24:41;4.20;1.00
356;DHT22;62514;48.112;11.566;2023-12-28T05:27:06;4.20;1.00
356;DHT22;62514;48.112;11.566;2023-12-28T05:29:32;4.30;1.00
356;DHT22;62514;48.112;11.566;2023-12-28T05:31:58;4.30;1.00
356;DHT22;62514;48.112;11.566;2023-12-28T05:34:25;4.20;1.00
356;DHT22;62514;48.112;11.566;2023-12-28T05:36:51;4.10;1.00
356;DHT22;62514;48.112;11.566;2023-12-28T05:39:16;4.00;1.00
356;DHT22;62514;48.112;11.566;2023-12-28T05:41:42;3.90;1.00
356;DHT22;62514;48.112;11.566;2023-12-28T05:44:10;3.80;1.30
356;DHT22;62514;48.112;11.566;2023-12-28T05:46:36;3.80;1.70
356;DHT22;62514;48.112;11.566;2023-12-28T05:49:02;3.70;2.10
356;DHT22;62514;48.112;11.566;2023-12-28T05:51:28;3.50;2.60
356;DHT22;62514;48.112;11.566;2023-12-28T05:53:54;3.40;3.00
356;DHT22;62514;48.112;11.566;2023-12-28T05:56:20;3.30;3.80
356;DHT22;62514;48.112;11.566;2023-12-28T05:58:46;3.30;3.80
356;DHT22;62514;48.112;11.566;2023-12-28T06:01:11;3.10;4.70
356;DHT22;62514;48.112;11.566;2023-12-28T06:03:37;3.00;4.90
356;DHT22;62514;48.112;11.566;2023-12-28T06:06:03;2.90;5.90
356;DHT22;62514;48.112;11.566;2023-12-28T06:08:29;2.80;6.10
356;DHT22;62514;48.112;11.566;2023-12-28T06:10:55;2.70;6.50
356;DHT22;62514;48.112;11.566;2023-12-28T06:13:21;2.70;7.10
356;DHT22;62514;48.112;11.566;2023-12-28T06:15:47;2.80;7.20
356;DHT22;62514;48.112;11.566;2023-12-28T06:18:13;2.70;7.20
356;DHT22;62514;48.112;11.566;2023-12-28T06:20:39;2.70;7.40
356;DHT22;62514;48.112;11.566;2023-12-28T06:23:06;2.70;7.70
356;DHT22;62514;48.112;11.566;2023-12-28T06:25:33;2.70;8.10
356;DHT22;62514;48.112;11.566;2023-12-28T06:27:59;2.50;8.70
356;DHT22;62514;48.112;11.566;2023-12-28T06:30:25;2.50;8.50
356;DHT22;62514;48.112;11.566;2023-12-28T06:32:51;2.50;9.10
356;DHT22;62514;48.112;11.566;2023-12-28T06:35:17;2.40;9.20
356;DHT22;62514;48.112;11.566;2023-12-28T06:37:43;2.30;9.70
356;DHT22;62514;48.112;11.566;2023-12-28T06:40:09;2.30;9.60
356;DHT22;62514;48.112;11.566;2023-12-28T06:42:35;2.30;9.40
356;DHT22;62514;48.112;11.566;2023-12-28T06:45:01;2.30;9.30
356;DHT22;62514;48.112;11.566;2023-12-28T06:47:27;2.20;9.10
356;DHT22;62514;48.112;11.566;2023-12-28T06:49:53;2.10;9.30
356;DHT22;62514;48.112;11.566;2023-12-28T06:52:19;2.10;9.50
356;DHT22;62514;48.112;11.566;2023-12-28T06:54:45;2.20;10.00
356;DHT22;62514;48.112;11.566;2023-12-28T06:57:11;2.00;10.60
356;DHT22;62514;48.112;11.566;2023-12-28T06:59:37;1.90;11.00
356;DHT22;62514;48.112;11.566;2023-12-28T07:02:03;1.90;11.50
356;DHT22;62514;48.112;11.566;2023-12-28T07:04:29;1.90;11.50
356;DHT22;62514;48.112;11.566;2023-12-28T07:06:55;1.90;11.20
356;DHT22;62514;48.112;11.566;2023-12-28T07:09:21;1.90;11.00
356;DHT22;62514;48.112;11.566;2023-12-28T07:11:47;2.00;10.90
356;DHT22;62514;48.112;11.566;2023-12-28T07:14:13;2.10;11.20
356;DHT22;62514;48.112;11.566;2023-12-28T07:16:39;2.00;11.50
356;DHT22;62514;48.112;11.566;2023-12-28T07:19:05;2.00;11.20
356;DHT22;62514;48.112;11.566;2023-12-28T07:21:31;2.00;11.70
356;DHT22;62514;48.112;11.566;2023-12-28T07:23:56;2.00;12.20
356;DHT22;62514;48.112;11.566;2023-12-28T07:26:22;2.00;11.70
356;DHT22;62514;48.112;11.566;2023-12-28T07:28:48;1.90;11.70
356;DHT22;62514;48.112;11.566;2023-12-28T07:31:27;1.90;12.30
356;DHT22;62514;48.112;11.566;2023-12-28T07:33:54;1.90;12.40
356;DHT22;62514;48.112;11.566;2023-12-28T07:36:20;1.90;12.20
356;DHT22;62514;48.112;11.566;2023-12-28T07:38:46;1.90;12.40
356;DHT22;62514;48.112;11.566;2023-12-28T07:41:12;1.90;12.80
356;DHT22;62514;48.112;11.566;2023-12-28T07:43:38;1.90;13.00
356;DHT22;62514;48.112;11.566;2023-12-28T07:46:04;2.00;13.30
356;DHT22;62514;48.112;11.566;2023-12-28T07:48:30;2.00;13.60
356;DHT22;62514;48.112;11.566;2023-12-28T07:50:57;2.00;13.60
356;DHT22;62514;48.112;11.566;2023-12-28T07:53:23;2.10;13.60
356;DHT22;62514;48.112;11.566;2023-12-28T07:55:50;2.30;14.00
356;DHT22;62514;48.112;11.566;2023-12-28T07:58:16;2.30;13.30
356;DHT22;62514;48.112;11.566;2023-12-28T08:00:42;2.40;13.20
356;DHT22;62514;48.112;11.566;2023-12-28T08:03:08;2.50;13.10
356;DHT22;62514;48.112;11.566;2023-12-28T08:05:34;2.60;12.90
356;DHT22;62514;48.112;11.566;2023-12-28T08:07:59;2.70;12.90
356;DHT22;62514;48.112;11.566;2023-12-28T08:10:25;2.80;13.00
356;DHT22;62514;48.112;11.566;2023-12-28T08:12:51;2.90;11.40
356;DHT22;62514;48.112;11.566;2023-12-28T08:15:17;3.20;10.00
356;DHT22;62514;48.112;11.566;2023-12-28T08:17:43;3.40;8.30
356;DHT22;62514;48.112;11.566;2023-12-28T08:20:09;3.70;9.00
356;DHT22;62514;48.112;11.566;2023-12-28T08:22:35;3.90;6.80
356;DHT22;62514;48.112;11.566;2023-12-28T08:25:01;4.10;5.20
356;DHT22;62514;48.112;11.566;2023-12-28T08:27:27;4.40;2.90
356;DHT22;62514;48.112;11.566;2023-12-28T08:29:53;4.80;1.00
356;DHT22;62514;48.112;11.566;2023-12-28T08:32:19;5.20;1.00
356;DHT22;62514;48.112;11.566;2023-12-28T08:34:45;5.50;1.00
356;DHT22;62514;48.112;11.566;2023-12-28T08:37:13;5.80;1.00
356;DHT22;62514;48.112;11.566;2023-12-28T08:39:39;6.10;1.00
356;DHT22;62514;48.112;11.566;2023-12-28T08:42:05;6.30;1.00
356;DHT22;62514;48.112;11.566;2023-12-28T08:44:31;6.50;1.00
356;DHT22;62514;48.112;11.566;2023-12-28T08:46:58;6.70;1.00
356;DHT22;62514;48.112;11.566;2023-12-28T08:49:24;6.80;1.00
356;DHT22;62514;48.112;11.566;2023-12-28T08:51:51;7.00;1.00
356;DHT22;62514;48.112;11.566;2023-12-28T08:54:17;7.30;1.00
356;DHT22;62514;48.112;11.566;2023-12-28T08:56:43;7.50;1.00
356;DHT22;62514;48.112;11.566;2023-12-28T08:59:09;7.70;1.00
356;DHT22;62514;48.112;11.566;2023-12-28T09:01:35;7.90;1.00
356;DHT22;62514;48.112;11.566;2023-12-28T09:04:01;8.10;1.00
356;DHT22;62514;48.112;11.566;2023-12-28T09:06:27;8.20;1.00
356;DHT22;62514;48.112;11.566;2023-12-28T09:08:53;8.40;1.00
356;DHT22;62514;48.112;11.566;2023-12-28T09:11:19;8.60;1.00
356;DHT22;62514;48.112;11.566;2023-12-28T09:13:46;8.70;1.00
356;DHT22;62514;48.112;11.566;2023-12-28T09:16:13;8.90;1.00
356;DHT22;62514;48.112;11.566;2023-12-28T09:18:39;8.90;1.00
356;DHT22;62514;48.112;11.566;2023-12-28T09:21:07;9.00;1.00
356;DHT22;62514;48.112;11.566;2023-12-28T09:23:33;9.00;1.00
356;DHT22;62514;48.112;11.566;2023-12-28T09:26:01;9.10;1.00
356;DHT22;62514;48.112;11.566;2023-12-28T09:28:27;9.20;1.00
356;DHT22;62514;48.112;11.566;2023-12-28T09:30:52;9.20;1.00
356;DHT22;62514;48.112;11.566;2023-12-28T09:33:18;9.30;1.00
356;DHT22;62514;48.112;11.566;2023-12-28T09:35:45;9.30;1.00
356;DHT22;62514;48.112;11.566;2023-12-28T09:38:10;9.40;1.00
356;DHT22;62514;48.112;11.566;2023-12-28T09:40:36;9.40;1.00
356;DHT22;62514;48.112;11.566;2023-12-28T09:43:12;9.50;1.00
356;DHT22;62514;48.112;11.566;2023-12-28T09:45:39;9.60;1.00
356;DHT22;62514;48.112;11.566;2023-12-28T09:48:05;9.60;1.00
356;DHT22;62514;48.112;11.566;2023-12-28T09:50:32;9.60;1.00
356;DHT22;62514;48.112;11.566;2023-12-28T09:52:58;9.70;1.00
356;DHT22;62514;48.112;11.566;2023-12-28T09:55:24;9.80;1.00
356;DHT22;62514;48.112;11.566;2023-12-28T09:57:51;9.90;1.00
356;DHT22;62514;48.112;11.566;2023-12-28T10:00:17;9.90;1.00
356;DHT22;62514;48.112;11.566;2023-12-28T10:02:46;10.00;1.00
356;DHT22;62514;48.112;11.566;2023-12-28T10:05:15;10.10;1.00
356;DHT22;62514;48.112;11.566;2023-12-28T10:07:45;10.20;1.00
356;DHT22;62514;48.112;11.566;2023-12-28T10:10:11;10.40;1.00
356;DHT22;62514;48.112;11.566;2023-12-28T10:12:37;10.50;1.00
356;DHT22;62514;48.112;11.566;2023-12-28T10:15:04;10.50;1.00
356;DHT22;62514;48.112;11.566;2023-12-28T10:17:33;10.70;1.00
356;DHT22;62514;48.112;11.566;2023-12-28T10:20:00;10.70;1.00
356;DHT22;62514;48.112;11.566;2023-12-28T10:22:31;10.80;1.00
356;DHT22;62514;48.112;11.566;2023-12-28T10:24:57;10.80;1.00
356;DHT22;62514;48.112;11.566;2023-12-28T10:27:26;10.80;1.00
356;DHT22;62514;48.112;11.566;2023-12-28T10:29:55;10.90;1.00
356;DHT22;62514;48.112;11.566;2023-12-28T10:32:22;11.00;1.00
356;DHT22;62514;48.112;11.566;2023-12-28T10:34:54;11.10;1.00
356;DHT22;62514;48.112;11.566;2023-12-28T10:37:21;11.20;1.00
356;DHT22;62514;48.112;11.566;2023-12-28T10:39:48;11.20;1.00
356;DHT22;62514;48.112;11.566;2023-12-28T10:42:28;11.10;1.00
356;DHT22;62514;48.112;11.566;2023-12-28T10:45:02;11.10;1.00
356;DHT22;62514;48.112;11.566;2023-12-28T10:47:32;10.90;1.00
356;DHT22;62514;48.112;11.566;2023-12-28T10:50:02;10.70;1.00
356;DHT22;62514;48.112;11.566;2023-12-28T10:52:31;10.60;1.00
356;DHT22;62514;48.112;11.566;2023-12-28T10:58:14;10.90;1.00
356;DHT22;62514;48.112;11.566;2023-12-28T11:00:54;11.00;1.00
356;DHT22;62514;48.112;11.566;2023-12-28T11:03:26;11.10;5.80
356;DHT22;62514;48.112;11.566;2023-12-28T11:05:53;11.20;99.90
356;DHT22;62514;48.112;11.566;2023-12-28T11:08:21;11.20;99.90
356;DHT22;62514;48.112;11.566;2023-12-28T11:10:50;11.30;99.90
356;DHT22;62514;48.112;11.566;2023-12-28T11:13:22;11.30;99.90
356;DHT22;62514;48.112;11.566;2023-12-28T11:15:48;11.40;99.90
356;DHT22;62514;48.112;11.566;2023-12-28T11:18:16;11.40;99.90
356;DHT22;62514;48.112;11.566;2023-12-28T11:20:43;11.40;99.90
356;DHT22;62514;48.112;11.566;2023-12-28T11:23:11;11.10;99.90
356;DHT22;62514;48.112;11.566;2023-12-28T11:25:37;11.10;99.90
356;DHT22;62514;48.112;11.566;2023-12-28T11:28:12;11.20;99.90
356;DHT22;62514;48.112;11.566;2023-12-28T11:30:41;11.20;99.90
356;DHT22;62514;48.112;11.566;2023-12-28T11:33:10;11.30;99.90
356;DHT22;62514;48.112;11.566;2023-12-28T11:35:40;11.40;99.90
356;DHT22;62514;48.112;11.566;2023-12-28T11:38:11;11.50;99.90
356;DHT22;62514;48.112;11.566;2023-12-28T11:40:42;11.50;99.90
356;DHT22;62514;48.112;11.566;2023-12-28T11:43:21;11.50;99.90
356;DHT22;62514;48.112;11.566;2023-12-28T11:45:54;11.60;99.90
356;DHT22;62514;48.112;11.566;2023-12-28T11:48:27;11.60;99.90
356;DHT22;62514;48.112;11.566;2023-12-28T11:50:58;11.50;99.90
356;DHT22;62514;48.112;11.566;2023-12-28T11:53:25;11.50;99.90
356;DHT22;62514;48.112;11.566;2023-12-28T11:55:51;11.50;67.60
356;DHT22;62514;48.112;11.566;2023-12-28T11:58:18;11.50;99.90
356;DHT22;62514;48.112;11.566;2023-12-28T12:00:44;11.60;99.90
356;DHT22;62514;48.112;11.566;2023-12-28T12:03:12;11.60;99.90
356;DHT22;62514;48.112;11.566;2023-12-28T12:05:39;11.70;99.90
356;DHT22;62514;48.112;11.566;2023-12-28T12:08:06;11.80;99.90
356;DHT22;62514;48.112;11.566;2023-12-28T12:10:34;11.90;99.90
356;DHT22;62514;48.112;11.566;2023-12-28T12:13:01;11.90;99.90
356;DHT22;62514;48.112;11.566;2023-12-28T12:15:29;11.90;99.90
356;DHT22;62514;48.112;11.566;2023-12-28T12:17:56;12.00;99.90
356;DHT22;62514;48.112;11.566;2023-12-28T12:20:22;11.90;99.90
356;DHT22;62514;48.112;11.566;2023-12-28T12:22:49;11.90;99.90
356;DHT22;62514;48.112;11.566;2023-12-28T12:25:18;12.00;99.90
356;DHT22;62514;48.112;11.566;2023-12-28T12:27:45;12.00;99.90
356;DHT22;62514;48.112;11.566;2023-12-28T12:30:11;12.00;99.90
356;DHT22;62514;48.112;11.566;2023-12-28T12:32:37;12.00;99.90
356;DHT22;62514;48.112;11.566;2023-12-28T12:35:06;12.00;99.90
356;DHT22;62514;48.112;11.566;2023-12-28T12:37:32;12.00;99.90
356;DHT22;62514;48.112;11.566;2023-12-28T12:39:58;12.00;48.30
356;DHT22;62514;48.112;11.566;2023-12-28T12:42:25;12.00;99.90
356;DHT22;62514;48.112;11.566;2023-12-28T12:44:51;11.90;99.90
356;DHT22;62514;48.112;11.566;2023-12-28T12:47:17;11.90;94.20
356;DHT22;62514;48.112;11.566;2023-12-28T12:49:43;11.90;99.90
356;DHT22;62514;48.112;11.566;2023-12-28T12:52:10;11.90;99.90
356;DHT22;62514;48.112;11.566;2023-12-28T12:54:36;11.90;99.90
356;DHT22;62514;48.112;11.566;2023-12-28T12:57:02;11.90;99.90
356;DHT22;62514;48.112;11.566;2023-12-28T12:59:29;11.80;95.10
356;DHT22;62514;48.112;11.566;2023-12-28T13:01:55;11.80;92.40
356;DHT22;62514;48.112;11.566;2023-12-28T13:04:21;11.80;99.90
356;DHT22;62514;48.112;11.566;2023-12-28T13:06:47;11.80;99.90
356;DHT22;62514;48.112;11.566;2023-12-28T13:09:13;11.90;98.20
356;DHT22;62514;48.112;11.566;2023-12-28T13:11:39;11.90;99.90
356;DHT22;62514;48.112;11.566;2023-12-28T13:14:05;11.90;93.60
356;DHT22;62514;48.112;11.566;2023-12-28T13:16:31;11.80;99.90
356;DHT22;62514;48.112;11.566;2023-12-28T13:18:57;11.90;99.90
356;DHT22;62514;48.112;11.566;2023-12-28T13:21:23;11.90;99.90
356;DHT22;62514;48.112;11.566;2023-12-28T13:23:49;11.90;99.90
356;DHT22;62514;48.112;11.566;2023-12-28T13:26:15;11.90;99.90
356;DHT22;62514;48.112;11.566;2023-12-28T13:28:41;11.90;99.90
356;DHT22;62514;48.112;11.566;2023-12-28T13:31:08;12.00;99.90
356;DHT22;62514;48.112;11.566;2023-12-28T13:33:34;12.00;99.90
356;DHT22;62514;48.112;11.566;2023-12-28T13:36:00;11.90;99.90
356;DHT22;62514;48.112;11.566;2023-12-28T13:38:26;11.90;99.90
356;DHT22;62514;48.112;11.566;2023-12-28T13:40:53;12.00;99.90
356;DHT22;62514;48.112;11.566;2023-12-28T13:43:19;12.00;99.90
356;DHT22;62514;48.112;11.566;2023-12-28T13:45:45;12.00;99.90
356;DHT22;62514;48.112;11.566;2023-12-28T13:48:11;11.90;99.90
356;DHT22;62514;48.112;11.566;2023-12-28T13:50:37;11.90;99.90
356;DHT22;62514;48.112;11.566;2023-12-28T13:53:03;11.80;99.90
356;DHT22;62514;48.112;11.566;2023-12-28T13:55:32;11.80;99.90
356;DHT22;62514;48.112;11.566;2023-12-28T13:57:59;11.80;99.90
356;DHT22;62514;48.112;11.566;2023-12-28T14:00:25;11.80;99.90
356;DHT22;62514;48.112;11.566;2023-12-28T14:02:51;11.70;99.90
356;DHT22;62514;48.112;11.566;2023-12-28T14:05:18;11.70;99.90
356;DHT22;62514;48.112;11.566;2023-12-28T14:07:45;11.70;99.90
356;DHT22;62514;48.112;11.566;2023-12-28T14:10:10;11.70;94.10
356;DHT22;62514;48.112;11.566;2023-12-28T14:12:36;11.70;99.90
356;DHT22;62514;48.112;11.566;2023-12-28T14:15:02;11.70;97.20
356;DHT22;62514;48.112;11.566;2023-12-28T14:17:28;11.70;99.90
356;DHT22;62514;48.112;11.566;2023-12-28T14:19:56;11.70;99.90
356;DHT22;62514;48.112;11.566;2023-12-28T14:22:22;11.70;99.90
356;DHT22;62514;48.112;11.566;2023-12-28T14:24:48;11.70;99.90
356;DHT22;62514;48.112;11.566;2023-12-28T14:27:14;11.70;99.90
356;DHT22;62514;48.112;11.566;2023-12-28T14:29:41;11.70;99.90
356;DHT22;62514;48.112;11.566;2023-12-28T14:32:07;11.70;99.90
356;DHT22;62514;48.112;11.566;2023-12-28T14:34:34;11.70;99.90
356;DHT22;62514;48.112;11.566;2023-12-28T14:37:00;11.60;99.90
356;DHT22;62514;48.112;11.566;2023-12-28T14:39:26;11.60;99.90
356;DHT22;62514;48.112;11.566;2023-12-28T14:41:52;11.60;95.90
356;DHT22;62514;48.112;11.566;2023-12-28T14:44:18;11.50;99.90
356;DHT22;62514;48.112;11.566;2023-12-28T14:46:44;11.50;99.90
356;DHT22;62514;48.112;11.566;2023-12-28T14:49:10;11.50;99.90
356;DHT22;62514;48.112;11.566;2023-12-28T14:51:36;11.50;99.90
356;DHT22;62514;48.112;11.566;2023-12-28T14:54:02;11.40;99.90
356;DHT22;62514;48.112;11.566;2023-12-28T14:56:28;11.40;99.90
356;DHT22;62514;48.112;11.566;2023-12-28T14:58:54;11.40;99.90
356;DHT22;62514;48.112;11.566;2023-12-28T15:01:20;11.40;99.90
356;DHT22;62514;48.112;11.566;2023-12-28T15:03:47;11.30;99.90
356;DHT22;62514;48.112;11.566;2023-12-28T15:06:13;11.30;99.90
356;DHT22;62514;48.112;11.566;2023-12-28T15:08:39;11.20;99.90
356;DHT22;62514;48.112;11.566;2023-12-28T15:11:05;11.20;99.90
356;DHT22;62514;48.112;11.566;2023-12-28T15:13:37;11.20;99.90
356;DHT22;62514;48.112;11.566;2023-12-28T15:16:03;11.20;99.90
356;DHT22;62514;48.112;11.566;2023-12-28T15:18:30;11.10;99.90
356;DHT22;62514;48.112;11.566;2023-12-28T15:20:57;11.10;99.90
356;DHT22;62514;48.112;11.566;2023-12-28T15:23:23;11.00;99.90
356;DHT22;62514;48.112;11.566;2023-12-28T15:25:49;11.00;99.90
356;DHT22;62514;48.112;11.566;2023-12-28T15:28:15;10.90;99.90
356;DHT22;62514;48.112;11.566;2023-12-28T15:30:41;10.80;99.90
356;DHT22;62514;48.112;11.566;2023-12-28T15:33:07;10.60;99.90
356;DHT22;62514;48.112;11.566;2023-12-28T15:35:37;10.50;99.90
356;DHT22;62514;48.112;11.566;2023-12-28T15:38:03;10.50;99.90
356;DHT22;62514;48.112;11.566;2023-12-28T15:40:29;10.40;99.90
356;DHT22;62514;48.112;11.566;2023-12-28T15:42:55;10.20;99.90
356;DHT22;62514;48.112;11.566;2023-12-28T15:45:21;10.10;99.90
356;DHT22;62514;48.112;11.566;2023-12-28T15:47:47;10.10;99.90
356;DHT22;62514;48.112;11.566;2023-12-28T15:50:13;10.00;99.90
356;DHT22;62514;48.112;11.566;2023-12-28T15:52:40;9.90;99.90
356;DHT22;62514;48.112;11.566;2023-12-28T15:55:06;9.90;99.90
356;DHT22;62514;48.112;11.566;2023-12-28T15:57:32;9.80;99.90
356;DHT22;62514;48.112;11.566;2023-12-28T15:59:58;9.70;99.90
356;DHT22;62514;48.112;11.566;2023-12-28T16:02:25;9.70;99.90